sensor_id;sensor_type;location;lat;lon;timestamp;temperature;humidity
22544;DHT22;11438;52.044;8.716;2023-09-08T00:01:37;22.40;92.40
22544;DHT22;11438;52.044;8.716;2023-09-08T00:04:02;22.40;92.40
22544;DHT22;11438;52.044;8.716;2023-09-08T00:06:28;22.30;92.50
22544;DHT22;11438;52.044;8.716;2023-09-08T00:08:57;22.30;92.50
22544;DHT22;11438;52.044;8.716;2023-09-08T00:11:22;22.30;92.60
22544;DHT22;11438;52.044;8.716;2023-09-08T00:13:48;22.30;92.60
22544;DHT22;11438;52.044;8.716;2023-09-08T00:16:15;22.20;92.70
22544;DHT22;11438;52.044;8.716;2023-09-08T00:18:41;22.20;92.70
22544;DHT22;11438;52.044;8.716;2023-09-08T00:21:07;22.20;92.80
22544;DHT22;11438;52.044;8.716;2023-09-08T00:23:32;22.20;92.80
22544;DHT22;11438;52.044;8.716;2023-09-08T00:25:57;22.20;92.80
22544;DHT22;11438;52.044;8.716;2023-09-08T00:28:24;22.20;92.90
22544;DHT22;11438;52.044;8.716;2023-09-08T00:30:49;22.20;93.00
22544;DHT22;11438;52.044;8.716;2023-09-08T00:33:15;22.20;93.00
22544;DHT22;11438;52.044;8.716;2023-09-08T00:35:44;22.20;93.00
22544;DHT22;11438;52.044;8.716;2023-09-08T00:38:10;22.10;93.00
22544;DHT22;11438;52.044;8.716;2023-09-08T00:40:35;22.10;92.90
22544;DHT22;11438;52.044;8.716;2023-09-08T00:43:01;22.10;93.00
22544;DHT22;11438;52.044;8.716;2023-09-08T00:45:28;22.10;93.00
22544;DHT22;11438;52.044;8.716;2023-09-08T00:47:55;22.10;93.10
22544;DHT22;11438;52.044;8.716;2023-09-08T00:50:20;22.10;93.20
22544;DHT22;11438;52.044;8.716;2023-09-08T00:52:46;22.00;93.10
22544;DHT22;11438;52.044;8.716;2023-09-08T00:55:12;22.00;93.10
22544;DHT22;11438;52.044;8.716;2023-09-08T00:57:37;22.00;93.10
22544;DHT22;11438;52.044;8.716;2023-09-08T01:00:03;22.00;93.20
22544;DHT22;11438;52.044;8.716;2023-09-08T01:02:31;22.00;93.20
22544;DHT22;11438;52.044;8.716;2023-09-08T01:04:58;21.90;93.20
22544;DHT22;11438;52.044;8.716;2023-09-08T01:07:25;21.90;93.30
22544;DHT22;11438;52.044;8.716;2023-09-08T01:09:52;21.90;93.30
22544;DHT22;11438;52.044;8.716;2023-09-08T01:12:18;21.80;93.30
22544;DHT22;11438;52.044;8.716;2023-09-08T01:14:44;21.80;93.30
22544;DHT22;11438;52.044;8.716;2023-09-08T01:17:10;21.80;93.40
22544;DHT22;11438;52.044;8.716;2023-09-08T01:19:38;21.80;93.40
22544;DHT22;11438;52.044;8.716;2023-09-08T01:27:25;21.70;93.50
22544;DHT22;11438;52.044;8.716;2023-09-08T01:29:52;21.70;93.50
22544;DHT22;11438;52.044;8.716;2023-09-08T01:32:18;21.70;93.60
22544;DHT22;11438;52.044;8.716;2023-09-08T01:34:44;21.60;93.50
22544;DHT22;11438;52.044;8.716;2023-09-08T01:37:10;21.60;93.60
22544;DHT22;11438;52.044;8.716;2023-09-08T01:39:36;21.60;93.60
22544;DHT22;11438;52.044;8.716;2023-09-08T01:42:01;21.60;93.70
22544;DHT22;11438;52.044;8.716;2023-09-08T01:44:27;21.50;93.70
22544;DHT22;11438;52.044;8.716;2023-09-08T01:46:52;21.50;93.70
22544;DHT22;11438;52.044;8.716;2023-09-08T01:49:24;21.50;93.80
22544;DHT22;11438;52.044;8.716;2023-09-08T01:51:50;21.40;93.70
22544;DHT22;11438;52.044;8.716;2023-09-08T01:54:16;21.40;93.80
22544;DHT22;11438;52.044;8.716;2023-09-08T01:56:41;21.40;93.80
22544;DHT22;11438;52.044;8.716;2023-09-08T01:59:07;21.40;93.90
22544;DHT22;11438;52.044;8.716;2023-09-08T02:01:32;21.30;93.80
22544;DHT22;11438;52.044;8.716;2023-09-08T02:03:58;21.30;93.90
22544;DHT22;11438;52.044;8.716;2023-09-08T02:06:23;21.30;93.90
22544;DHT22;11438;52.044;8.716;2023-09-08T02:08:49;21.30;93.90
22544;DHT22;11438;52.044;8.716;2023-09-08T02:11:14;21.20;93.90
22544;DHT22;11438;52.044;8.716;2023-09-08T02:13:42;21.20;94.00
22544;DHT22;11438;52.044;8.716;2023-09-08T02:16:12;21.20;94.10
22544;DHT22;11438;52.044;8.716;2023-09-08T02:18:37;21.20;94.10
22544;DHT22;11438;52.044;8.716;2023-09-08T02:21:03;21.10;94.10
22544;DHT22;11438;52.044;8.716;2023-09-08T02:23:28;21.10;94.20
22544;DHT22;11438;52.044;8.716;2023-09-08T02:25:54;21.10;94.20
22544;DHT22;11438;52.044;8.716;2023-09-08T02:28:19;21.10;94.20
22544;DHT22;11438;52.044;8.716;2023-09-08T02:30:45;21.10;94.30
22544;DHT22;11438;52.044;8.716;2023-09-08T02:33:11;21.00;94.40
22544;DHT22;11438;52.044;8.716;2023-09-08T02:35:37;21.00;94.30
22544;DHT22;11438;52.044;8.716;2023-09-08T02:38:05;21.00;94.30
22544;DHT22;11438;52.044;8.716;2023-09-08T02:40:31;21.00;94.30
22544;DHT22;11438;52.044;8.716;2023-09-08T02:42:59;20.90;94.30
22544;DHT22;11438;52.044;8.716;2023-09-08T02:45:25;20.90;94.30
22544;DHT22;11438;52.044;8.716;2023-09-08T02:47:50;20.90;94.40
22544;DHT22;11438;52.044;8.716;2023-09-08T02:50:16;20.90;94.40
22544;DHT22;11438;52.044;8.716;2023-09-08T02:52:41;20.90;94.40
22544;DHT22;11438;52.044;8.716;2023-09-08T02:55:07;20.80;94.40
22544;DHT22;11438;52.044;8.716;2023-09-08T02:57:33;20.80;94.50
22544;DHT22;11438;52.044;8.716;2023-09-08T02:59:59;20.80;94.40
22544;DHT22;11438;52.044;8.716;2023-09-08T03:02:25;20.70;94.40
22544;DHT22;11438;52.044;8.716;2023-09-08T03:04:51;20.70;94.50
22544;DHT22;11438;52.044;8.716;2023-09-08T03:07:17;20.70;94.60
22544;DHT22;11438;52.044;8.716;2023-09-08T03:09:42;20.70;94.60
22544;DHT22;11438;52.044;8.716;2023-09-08T03:12:08;20.60;94.60
22544;DHT22;11438;52.044;8.716;2023-09-08T03:14:33;20.60;94.60
22544;DHT22;11438;52.044;8.716;2023-09-08T03:16:59;20.60;94.60
22544;DHT22;11438;52.044;8.716;2023-09-08T03:19:24;20.60;94.70
22544;DHT22;11438;52.044;8.716;2023-09-08T03:21:50;20.50;94.70
22544;DHT22;11438;52.044;8.716;2023-09-08T03:24:15;20.50;94.70
22544;DHT22;11438;52.044;8.716;2023-09-08T03:26:41;20.50;94.70
22544;DHT22;11438;52.044;8.716;2023-09-08T03:29:06;20.50;94.70
22544;DHT22;11438;52.044;8.716;2023-09-08T03:31:32;20.40;94.70
22544;DHT22;11438;52.044;8.716;2023-09-08T03:33:58;20.40;94.80
22544;DHT22;11438;52.044;8.716;2023-09-08T03:36:23;20.40;94.80
22544;DHT22;11438;52.044;8.716;2023-09-08T03:38:50;20.40;94.80
22544;DHT22;11438;52.044;8.716;2023-09-08T03:41:15;20.30;94.80
22544;DHT22;11438;52.044;8.716;2023-09-08T03:43:41;20.30;94.80
22544;DHT22;11438;52.044;8.716;2023-09-08T03:46:06;20.30;94.90
22544;DHT22;11438;52.044;8.716;2023-09-08T03:48:32;20.30;94.90
22544;DHT22;11438;52.044;8.716;2023-09-08T03:50:58;20.20;94.90
22544;DHT22;11438;52.044;8.716;2023-09-08T03:53:24;20.20;94.90
22544;DHT22;11438;52.044;8.716;2023-09-08T03:55:49;20.20;94.90
22544;DHT22;11438;52.044;8.716;2023-09-08T03:58:15;20.10;94.90
22544;DHT22;11438;52.044;8.716;2023-09-08T04:00:41;20.10;95.00
22544;DHT22;11438;52.044;8.716;2023-09-08T04:03:08;20.10;95.00
22544;DHT22;11438;52.044;8.716;2023-09-08T04:05:34;20.10;95.00
22544;DHT22;11438;52.044;8.716;2023-09-08T04:08:00;20.10;95.10
22544;DHT22;11438;52.044;8.716;2023-09-08T04:10:26;20.10;95.20
22544;DHT22;11438;52.044;8.716;2023-09-08T04:12:52;20.00;95.10
22544;DHT22;11438;52.044;8.716;2023-09-08T04:15:17;20.00;95.20
22544;DHT22;11438;52.044;8.716;2023-09-08T04:17:43;20.00;95.20
22544;DHT22;11438;52.044;8.716;2023-09-08T04:20:08;20.00;95.20
22544;DHT22;11438;52.044;8.716;2023-09-08T04:22:34;20.00;95.20
22544;DHT22;11438;52.044;8.716;2023-09-08T04:25:00;19.90;95.20
22544;DHT22;11438;52.044;8.716;2023-09-08T04:27:26;19.90;95.20
22544;DHT22;11438;52.044;8.716;2023-09-08T04:29:52;19.90;95.30
22544;DHT22;11438;52.044;8.716;2023-09-08T04:32:17;19.90;95.40
22544;DHT22;11438;52.044;8.716;2023-09-08T04:34:43;19.90;95.40
22544;DHT22;11438;52.044;8.716;2023-09-08T04:37:09;19.80;95.40
22544;DHT22;11438;52.044;8.716;2023-09-08T04:39:35;19.80;95.40
22544;DHT22;11438;52.044;8.716;2023-09-08T04:42:02;19.80;95.50
22544;DHT22;11438;52.044;8.716;2023-09-08T04:44:28;19.80;95.50
22544;DHT22;11438;52.044;8.716;2023-09-08T04:46:54;19.80;95.50
22544;DHT22;11438;52.044;8.716;2023-09-08T04:49:20;19.80;95.50
22544;DHT22;11438;52.044;8.716;2023-09-08T04:51:45;19.80;95.50
22544;DHT22;11438;52.044;8.716;2023-09-08T04:54:11;19.70;95.60
22544;DHT22;11438;52.044;8.716;2023-09-08T04:56:38;19.70;95.60
22544;DHT22;11438;52.044;8.716;2023-09-08T04:59:04;19.70;95.70
22544;DHT22;11438;52.044;8.716;2023-09-08T05:01:29;19.70;95.90
22544;DHT22;11438;52.044;8.716;2023-09-08T05:03:58;19.70;96.00
22544;DHT22;11438;52.044;8.716;2023-09-08T05:06:25;19.70;96.00
22544;DHT22;11438;52.044;8.716;2023-09-08T05:08:51;19.70;96.10
22544;DHT22;11438;52.044;8.716;2023-09-08T05:11:16;19.70;96.20
22544;DHT22;11438;52.044;8.716;2023-09-08T05:13:42;19.70;96.20
22544;DHT22;11438;52.044;8.716;2023-09-08T05:16:08;19.70;96.30
22544;DHT22;11438;52.044;8.716;2023-09-08T05:18:39;19.70;96.40
22544;DHT22;11438;52.044;8.716;2023-09-08T05:21:05;19.70;96.50
22544;DHT22;11438;52.044;8.716;2023-09-08T05:23:31;19.70;96.50
22544;DHT22;11438;52.044;8.716;2023-09-08T05:25:56;19.70;96.50
22544;DHT22;11438;52.044;8.716;2023-09-08T05:28:22;19.70;96.50
22544;DHT22;11438;52.044;8.716;2023-09-08T05:30:47;19.70;96.50
22544;DHT22;11438;52.044;8.716;2023-09-08T05:33:13;19.70;96.60
22544;DHT22;11438;52.044;8.716;2023-09-08T05:35:38;19.70;96.60
22544;DHT22;11438;52.044;8.716;2023-09-08T05:38:04;19.80;96.70
22544;DHT22;11438;52.044;8.716;2023-09-08T05:40:31;19.80;96.70
22544;DHT22;11438;52.044;8.716;2023-09-08T05:42:56;19.80;96.80
22544;DHT22;11438;52.044;8.716;2023-09-08T05:45:22;19.80;96.80
22544;DHT22;11438;52.044;8.716;2023-09-08T05:47:48;19.80;96.80
22544;DHT22;11438;52.044;8.716;2023-09-08T05:50:14;19.80;96.90
22544;DHT22;11438;52.044;8.716;2023-09-08T05:52:40;19.80;97.10
22544;DHT22;11438;52.044;8.716;2023-09-08T05:55:05;19.80;97.30
22544;DHT22;11438;52.044;8.716;2023-09-08T05:57:31;19.90;97.40
22544;DHT22;11438;52.044;8.716;2023-09-08T05:59:57;19.90;97.40
22544;DHT22;11438;52.044;8.716;2023-09-08T06:02:23;19.90;97.60
22544;DHT22;11438;52.044;8.716;2023-09-08T06:04:48;20.00;97.70
22544;DHT22;11438;52.044;8.716;2023-09-08T06:07:14;20.00;97.80
22544;DHT22;11438;52.044;8.716;2023-09-08T06:09:39;20.00;97.90
22544;DHT22;11438;52.044;8.716;2023-09-08T06:12:05;20.00;98.30
22544;DHT22;11438;52.044;8.716;2023-09-08T06:14:30;20.10;98.40
22544;DHT22;11438;52.044;8.716;2023-09-08T06:16:56;20.10;98.40
22544;DHT22;11438;52.044;8.716;2023-09-08T06:19:21;20.10;98.60
22544;DHT22;11438;52.044;8.716;2023-09-08T06:21:47;20.10;98.50
22544;DHT22;11438;52.044;8.716;2023-09-08T06:24:12;20.20;98.50
22544;DHT22;11438;52.044;8.716;2023-09-08T06:26:38;20.20;98.60
22544;DHT22;11438;52.044;8.716;2023-09-08T06:29:04;20.30;98.60
22544;DHT22;11438;52.044;8.716;2023-09-08T06:31:29;20.30;98.90
22544;DHT22;11438;52.044;8.716;2023-09-08T06:33:55;20.30;98.90
22544;DHT22;11438;52.044;8.716;2023-09-08T06:36:20;20.40;98.90
22544;DHT22;11438;52.044;8.716;2023-09-08T06:38:46;20.40;98.90
22544;DHT22;11438;52.044;8.716;2023-09-08T06:41:11;20.40;99.00
22544;DHT22;11438;52.044;8.716;2023-09-08T06:43:37;20.50;99.00
22544;DHT22;11438;52.044;8.716;2023-09-08T06:46:03;20.50;99.10
22544;DHT22;11438;52.044;8.716;2023-09-08T06:48:30;20.60;99.20
22544;DHT22;11438;52.044;8.716;2023-09-08T06:50:56;20.60;99.20
22544;DHT22;11438;52.044;8.716;2023-09-08T06:53:22;20.70;99.30
22544;DHT22;11438;52.044;8.716;2023-09-08T06:55:48;20.70;99.30
22544;DHT22;11438;52.044;8.716;2023-09-08T06:58:14;20.80;99.30
22544;DHT22;11438;52.044;8.716;2023-09-08T07:00:42;20.80;99.30
22544;DHT22;11438;52.044;8.716;2023-09-08T07:03:07;20.80;99.20
22544;DHT22;11438;52.044;8.716;2023-09-08T07:05:38;20.90;99.30
22544;DHT22;11438;52.044;8.716;2023-09-08T07:08:04;21.00;99.30
22544;DHT22;11438;52.044;8.716;2023-09-08T07:10:31;21.00;99.30
22544;DHT22;11438;52.044;8.716;2023-09-08T07:12:57;21.10;99.40
22544;DHT22;11438;52.044;8.716;2023-09-08T07:15:22;21.20;99.50
22544;DHT22;11438;52.044;8.716;2023-09-08T07:17:48;21.20;99.30
22544;DHT22;11438;52.044;8.716;2023-09-08T07:20:13;21.30;99.30
22544;DHT22;11438;52.044;8.716;2023-09-08T07:22:39;21.30;99.20
22544;DHT22;11438;52.044;8.716;2023-09-08T07:25:05;21.40;99.20
22544;DHT22;11438;52.044;8.716;2023-09-08T07:27:31;21.40;99.30
22544;DHT22;11438;52.044;8.716;2023-09-08T07:29:56;21.50;99.30
22544;DHT22;11438;52.044;8.716;2023-09-08T07:32:22;21.60;99.20
22544;DHT22;11438;52.044;8.716;2023-09-08T07:34:48;21.60;99.10
22544;DHT22;11438;52.044;8.716;2023-09-08T07:37:21;21.70;99.00
22544;DHT22;11438;52.044;8.716;2023-09-08T07:39:46;21.80;99.10
22544;DHT22;11438;52.044;8.716;2023-09-08T07:42:12;21.80;99.00
22544;DHT22;11438;52.044;8.716;2023-09-08T07:44:38;21.90;99.20
22544;DHT22;11438;52.044;8.716;2023-09-08T07:47:03;22.00;99.00
22544;DHT22;11438;52.044;8.716;2023-09-08T07:49:29;22.00;98.80
22544;DHT22;11438;52.044;8.716;2023-09-08T07:51:54;22.10;98.90
22544;DHT22;11438;52.044;8.716;2023-09-08T07:54:20;22.20;98.90
22544;DHT22;11438;52.044;8.716;2023-09-08T07:56:46;22.10;99.20
22544;DHT22;11438;52.044;8.716;2023-09-08T07:59:12;22.20;99.00
22544;DHT22;11438;52.044;8.716;2023-09-08T08:01:37;22.30;98.90
22544;DHT22;11438;52.044;8.716;2023-09-08T08:04:03;22.40;98.90
22544;DHT22;11438;52.044;8.716;2023-09-08T08:06:29;22.50;98.90
22544;DHT22;11438;52.044;8.716;2023-09-08T08:08:55;22.60;98.90
22544;DHT22;11438;52.044;8.716;2023-09-08T08:11:21;22.70;99.00
22544;DHT22;11438;52.044;8.716;2023-09-08T08:13:47;22.70;98.80
22544;DHT22;11438;52.044;8.716;2023-09-08T08:16:12;22.80;98.70
22544;DHT22;11438;52.044;8.716;2023-09-08T08:18:38;22.90;98.70
22544;DHT22;11438;52.044;8.716;2023-09-08T08:21:03;22.90;98.70
22544;DHT22;11438;52.044;8.716;2023-09-08T08:23:30;23.00;98.50
22544;DHT22;11438;52.044;8.716;2023-09-08T08:25:56;23.10;98.40
22544;DHT22;11438;52.044;8.716;2023-09-08T08:28:22;23.20;98.40
22544;DHT22;11438;52.044;8.716;2023-09-08T08:30:47;23.30;98.50
22544;DHT22;11438;52.044;8.716;2023-09-08T08:33:13;23.40;98.60
22544;DHT22;11438;52.044;8.716;2023-09-08T08:35:39;23.40;98.40
22544;DHT22;11438;52.044;8.716;2023-09-08T08:38:05;23.50;98.40
22544;DHT22;11438;52.044;8.716;2023-09-08T08:40:31;23.50;98.30
22544;DHT22;11438;52.044;8.716;2023-09-08T08:42:57;23.60;98.10
22544;DHT22;11438;52.044;8.716;2023-09-08T08:45:24;23.70;98.10
22544;DHT22;11438;52.044;8.716;2023-09-08T08:47:51;23.80;97.90
22544;DHT22;11438;52.044;8.716;2023-09-08T08:50:17;23.90;98.00
22544;DHT22;11438;52.044;8.716;2023-09-08T08:52:43;24.00;98.10
22544;DHT22;11438;52.044;8.716;2023-09-08T08:55:09;24.00;97.70
22544;DHT22;11438;52.044;8.716;2023-09-08T08:57:39;24.10;97.90
22544;DHT22;11438;52.044;8.716;2023-09-08T09:00:07;24.20;97.50
22544;DHT22;11438;52.044;8.716;2023-09-08T09:02:41;24.30;97.40
22544;DHT22;11438;52.044;8.716;2023-09-08T09:05:16;24.30;97.60
22544;DHT22;11438;52.044;8.716;2023-09-08T09:07:42;24.40;97.40
22544;DHT22;11438;52.044;8.716;2023-09-08T09:10:08;24.50;97.50
22544;DHT22;11438;52.044;8.716;2023-09-08T09:12:36;24.60;97.20
22544;DHT22;11438;52.044;8.716;2023-09-08T09:15:03;24.60;97.20
22544;DHT22;11438;52.044;8.716;2023-09-08T09:17:33;24.70;97.00
22544;DHT22;11438;52.044;8.716;2023-09-08T09:20:17;24.80;96.90
22544;DHT22;11438;52.044;8.716;2023-09-08T09:22:47;24.90;97.30
22544;DHT22;11438;52.044;8.716;2023-09-08T09:25:21;24.90;97.00
22544;DHT22;11438;52.044;8.716;2023-09-08T09:27:55;25.00;96.70
22544;DHT22;11438;52.044;8.716;2023-09-08T09:30:21;25.10;97.00
22544;DHT22;11438;52.044;8.716;2023-09-08T09:32:48;25.20;96.80
22544;DHT22;11438;52.044;8.716;2023-09-08T09:35:16;25.30;96.60
22544;DHT22;11438;52.044;8.716;2023-09-08T09:37:42;25.30;96.10
22544;DHT22;11438;52.044;8.716;2023-09-08T09:40:08;25.40;96.30
22544;DHT22;11438;52.044;8.716;2023-09-08T09:42:38;25.40;96.30
22544;DHT22;11438;52.044;8.716;2023-09-08T09:45:06;25.50;95.90
22544;DHT22;11438;52.044;8.716;2023-09-08T09:47:32;25.60;96.10
22544;DHT22;11438;52.044;8.716;2023-09-08T09:49:57;25.60;95.80
22544;DHT22;11438;52.044;8.716;2023-09-08T09:52:24;25.80;95.70
22544;DHT22;11438;52.044;8.716;2023-09-08T09:54:52;25.80;96.00
22544;DHT22;11438;52.044;8.716;2023-09-08T09:57:21;25.90;95.90
22544;DHT22;11438;52.044;8.716;2023-09-08T09:59:47;26.00;95.90
22544;DHT22;11438;52.044;8.716;2023-09-08T10:02:17;26.00;95.60
22544;DHT22;11438;52.044;8.716;2023-09-08T10:04:45;26.10;95.70
22544;DHT22;11438;52.044;8.716;2023-09-08T10:07:12;26.10;95.90
22544;DHT22;11438;52.044;8.716;2023-09-08T10:09:39;26.20;95.80
22544;DHT22;11438;52.044;8.716;2023-09-08T10:12:05;26.30;95.70
22544;DHT22;11438;52.044;8.716;2023-09-08T10:14:32;26.30;95.90
22544;DHT22;11438;52.044;8.716;2023-09-08T10:17:01;26.40;95.90
22544;DHT22;11438;52.044;8.716;2023-09-08T10:19:27;26.50;95.60
22544;DHT22;11438;52.044;8.716;2023-09-08T10:21:57;26.60;95.20
22544;DHT22;11438;52.044;8.716;2023-09-08T10:24:29;26.60;94.90
22544;DHT22;11438;52.044;8.716;2023-09-08T10:27:08;26.70;94.90
22544;DHT22;11438;52.044;8.716;2023-09-08T10:29:34;26.80;95.60
22544;DHT22;11438;52.044;8.716;2023-09-08T10:32:01;26.90;95.30
22544;DHT22;11438;52.044;8.716;2023-09-08T10:34:28;27.00;95.20
22544;DHT22;11438;52.044;8.716;2023-09-08T10:36:55;27.00;96.00
22544;DHT22;11438;52.044;8.716;2023-09-08T10:39:34;27.00;95.00
22544;DHT22;11438;52.044;8.716;2023-09-08T10:44:43;27.20;94.60
22544;DHT22;11438;52.044;8.716;2023-09-08T10:47:09;27.30;94.70
22544;DHT22;11438;52.044;8.716;2023-09-08T10:49:35;27.40;94.70
22544;DHT22;11438;52.044;8.716;2023-09-08T10:52:12;27.40;94.60
22544;DHT22;11438;52.044;8.716;2023-09-08T10:57:13;27.50;94.20
22544;DHT22;11438;52.044;8.716;2023-09-08T10:59:39;27.60;94.10
22544;DHT22;11438;52.044;8.716;2023-09-08T11:02:05;27.70;95.00
22544;DHT22;11438;52.044;8.716;2023-09-08T11:04:31;27.70;94.30
22544;DHT22;11438;52.044;8.716;2023-09-08T11:06:58;27.80;94.10
22544;DHT22;11438;52.044;8.716;2023-09-08T11:09:24;27.90;93.80
22544;DHT22;11438;52.044;8.716;2023-09-08T11:11:50;28.00;93.30
22544;DHT22;11438;52.044;8.716;2023-09-08T11:14:15;28.00;93.70
22544;DHT22;11438;52.044;8.716;2023-09-08T11:16:42;28.10;93.30
22544;DHT22;11438;52.044;8.716;2023-09-08T11:19:07;28.20;92.70
22544;DHT22;11438;52.044;8.716;2023-09-08T11:21:35;28.20;92.80
22544;DHT22;11438;52.044;8.716;2023-09-08T11:24:02;28.30;93.00
22544;DHT22;11438;52.044;8.716;2023-09-08T11:26:33;28.30;92.70
22544;DHT22;11438;52.044;8.716;2023-09-08T11:28:58;28.40;92.70
22544;DHT22;11438;52.044;8.716;2023-09-08T11:31:24;28.40;92.50
22544;DHT22;11438;52.044;8.716;2023-09-08T11:33:49;28.50;92.60
22544;DHT22;11438;52.044;8.716;2023-09-08T11:36:19;28.60;92.20
22544;DHT22;11438;52.044;8.716;2023-09-08T11:38:45;28.60;91.30
22544;DHT22;11438;52.044;8.716;2023-09-08T11:41:11;28.60;91.90
22544;DHT22;11438;52.044;8.716;2023-09-08T11:43:37;28.70;91.10
22544;DHT22;11438;52.044;8.716;2023-09-08T11:46:02;28.80;90.90
22544;DHT22;11438;52.044;8.716;2023-09-08T11:48:28;28.80;90.80
22544;DHT22;11438;52.044;8.716;2023-09-08T11:50:54;28.80;90.50
22544;DHT22;11438;52.044;8.716;2023-09-08T11:53:23;28.90;91.00
22544;DHT22;11438;52.044;8.716;2023-09-08T11:55:49;28.90;91.30
22544;DHT22;11438;52.044;8.716;2023-09-08T11:58:17;28.90;90.80
22544;DHT22;11438;52.044;8.716;2023-09-08T12:00:43;29.10;90.10
22544;DHT22;11438;52.044;8.716;2023-09-08T12:03:14;29.10;90.60
22544;DHT22;11438;52.044;8.716;2023-09-08T12:05:41;29.10;90.60
22544;DHT22;11438;52.044;8.716;2023-09-08T12:08:07;29.10;90.10
22544;DHT22;11438;52.044;8.716;2023-09-08T12:10:42;29.20;90.50
22544;DHT22;11438;52.044;8.716;2023-09-08T12:13:08;29.30;90.20
22544;DHT22;11438;52.044;8.716;2023-09-08T12:15:36;29.30;90.30
22544;DHT22;11438;52.044;8.716;2023-09-08T12:18:04;29.40;89.60
22544;DHT22;11438;52.044;8.716;2023-09-08T12:20:31;29.40;89.90
22544;DHT22;11438;52.044;8.716;2023-09-08T12:23:02;29.50;89.90
22544;DHT22;11438;52.044;8.716;2023-09-08T12:25:28;29.50;89.30
22544;DHT22;11438;52.044;8.716;2023-09-08T12:27:57;29.50;89.80
22544;DHT22;11438;52.044;8.716;2023-09-08T12:30:23;29.60;89.50
22544;DHT22;11438;52.044;8.716;2023-09-08T12:32:58;29.70;88.70
22544;DHT22;11438;52.044;8.716;2023-09-08T12:35:24;29.70;88.50
22544;DHT22;11438;52.044;8.716;2023-09-08T12:38:08;29.80;88.70
22544;DHT22;11438;52.044;8.716;2023-09-08T12:40:36;29.70;89.40
22544;DHT22;11438;52.044;8.716;2023-09-08T12:43:02;29.80;88.10
22544;DHT22;11438;52.044;8.716;2023-09-08T12:45:28;29.80;88.80
22544;DHT22;11438;52.044;8.716;2023-09-08T12:47:54;29.90;88.00
22544;DHT22;11438;52.044;8.716;2023-09-08T12:50:28;29.90;88.80
22544;DHT22;11438;52.044;8.716;2023-09-08T12:52:53;29.90;88.30
22544;DHT22;11438;52.044;8.716;2023-09-08T12:55:19;30.00;87.40
22544;DHT22;11438;52.044;8.716;2023-09-08T12:57:45;30.00;88.80
22544;DHT22;11438;52.044;8.716;2023-09-08T13:00:12;30.00;87.80
22544;DHT22;11438;52.044;8.716;2023-09-08T13:02:38;30.10;86.50
22544;DHT22;11438;52.044;8.716;2023-09-08T13:05:04;30.10;84.00
22544;DHT22;11438;52.044;8.716;2023-09-08T13:07:29;30.10;85.40
22544;DHT22;11438;52.044;8.716;2023-09-08T13:09:55;30.20;85.60
22544;DHT22;11438;52.044;8.716;2023-09-08T13:12:20;30.20;84.50
22544;DHT22;11438;52.044;8.716;2023-09-08T13:14:46;30.20;84.60
22544;DHT22;11438;52.044;8.716;2023-09-08T13:17:12;30.30;85.20
22544;DHT22;11438;52.044;8.716;2023-09-08T13:19:38;30.30;85.30
22544;DHT22;11438;52.044;8.716;2023-09-08T13:22:04;30.30;85.50
22544;DHT22;11438;52.044;8.716;2023-09-08T13:24:30;30.40;83.00
22544;DHT22;11438;52.044;8.716;2023-09-08T13:26:55;30.40;82.30
22544;DHT22;11438;52.044;8.716;2023-09-08T13:29:21;30.40;81.90
22544;DHT22;11438;52.044;8.716;2023-09-08T13:31:46;30.40;82.50
22544;DHT22;11438;52.044;8.716;2023-09-08T13:34:12;30.40;83.00
22544;DHT22;11438;52.044;8.716;2023-09-08T13:36:38;30.50;82.50
22544;DHT22;11438;52.044;8.716;2023-09-08T13:39:03;30.50;81.60
22544;DHT22;11438;52.044;8.716;2023-09-08T13:41:54;30.50;81.10
22544;DHT22;11438;52.044;8.716;2023-09-08T13:44:22;30.50;81.00
22544;DHT22;11438;52.044;8.716;2023-09-08T13:46:48;30.50;80.20
22544;DHT22;11438;52.044;8.716;2023-09-08T13:49:14;30.50;81.70
22544;DHT22;11438;52.044;8.716;2023-09-08T13:51:40;30.60;81.80
22544;DHT22;11438;52.044;8.716;2023-09-08T13:54:07;30.60;81.40
22544;DHT22;11438;52.044;8.716;2023-09-08T13:56:33;30.60;80.40
22544;DHT22;11438;52.044;8.716;2023-09-08T13:58:58;30.60;80.20
22544;DHT22;11438;52.044;8.716;2023-09-08T14:01:24;30.70;80.40
22544;DHT22;11438;52.044;8.716;2023-09-08T14:03:50;30.60;80.20
22544;DHT22;11438;52.044;8.716;2023-09-08T14:06:18;30.70;80.20
22544;DHT22;11438;52.044;8.716;2023-09-08T14:08:44;30.70;79.00
22544;DHT22;11438;52.044;8.716;2023-09-08T14:11:10;30.70;79.50
22544;DHT22;11438;52.044;8.716;2023-09-08T14:13:35;30.70;79.50
22544;DHT22;11438;52.044;8.716;2023-09-08T14:16:01;30.70;79.20
22544;DHT22;11438;52.044;8.716;2023-09-08T14:18:26;30.70;79.20
22544;DHT22;11438;52.044;8.716;2023-09-08T14:20:52;30.70;78.90
22544;DHT22;11438;52.044;8.716;2023-09-08T14:23:17;30.70;79.80
22544;DHT22;11438;52.044;8.716;2023-09-08T14:25:43;30.80;79.40
22544;DHT22;11438;52.044;8.716;2023-09-08T14:28:08;30.80;78.70
22544;DHT22;11438;52.044;8.716;2023-09-08T14:30:34;30.70;79.50
22544;DHT22;11438;52.044;8.716;2023-09-08T14:33:00;30.80;79.60
22544;DHT22;11438;52.044;8.716;2023-09-08T14:35:26;30.80;79.10
22544;DHT22;11438;52.044;8.716;2023-09-08T14:37:51;30.80;78.70
22544;DHT22;11438;52.044;8.716;2023-09-08T14:40:17;30.80;77.60
22544;DHT22;11438;52.044;8.716;2023-09-08T14:42:42;30.80;77.30
22544;DHT22;11438;52.044;8.716;2023-09-08T14:45:08;30.80;77.90
22544;DHT22;11438;52.044;8.716;2023-09-08T14:47:35;30.80;78.10
22544;DHT22;11438;52.044;8.716;2023-09-08T14:50:00;30.90;78.80
22544;DHT22;11438;52.044;8.716;2023-09-08T14:52:26;30.90;77.70
22544;DHT22;11438;52.044;8.716;2023-09-08T14:54:52;30.80;76.50
22544;DHT22;11438;52.044;8.716;2023-09-08T14:57:17;30.80;76.70
22544;DHT22;11438;52.044;8.716;2023-09-08T14:59:43;30.80;77.70
22544;DHT22;11438;52.044;8.716;2023-09-08T15:02:09;30.90;78.40
22544;DHT22;11438;52.044;8.716;2023-09-08T15:04:35;30.90;78.10
22544;DHT22;11438;52.044;8.716;2023-09-08T15:07:00;30.90;78.50
22544;DHT22;11438;52.044;8.716;2023-09-08T15:09:26;30.80;78.50
22544;DHT22;11438;52.044;8.716;2023-09-08T15:11:51;30.90;78.80
22544;DHT22;11438;52.044;8.716;2023-09-08T15:14:17;30.90;78.50
22544;DHT22;11438;52.044;8.716;2023-09-08T15:16:42;30.90;77.40
22544;DHT22;11438;52.044;8.716;2023-09-08T15:19:08;30.90;77.80
22544;DHT22;11438;52.044;8.716;2023-09-08T15:21:34;30.90;77.80
22544;DHT22;11438;52.044;8.716;2023-09-08T15:24:00;30.90;78.10
22544;DHT22;11438;52.044;8.716;2023-09-08T15:26:27;30.90;77.60
22544;DHT22;11438;52.044;8.716;2023-09-08T15:28:52;30.90;78.10
22544;DHT22;11438;52.044;8.716;2023-09-08T15:31:18;30.90;78.40
22544;DHT22;11438;52.044;8.716;2023-09-08T15:33:44;30.90;79.00
22544;DHT22;11438;52.044;8.716;2023-09-08T15:36:10;30.90;79.40